Time;durP1;ratioP1;P1;durP2;ratioP2;P2;SDS_P1;SDS_P2;PMS_P1;PMS_P2;Temp;Humidity;BMP_temperature;BMP_pressure;BME280_temperature;BME280_humidity;BME280_pressure;Samples;Min_cycle;Max_cycle;Signal;HPM_P1;HPM_P2
2023/11/11 00:01:13;;;;;;;4.75;2.38;;;;;;;;;;5027860;28;20056;-73
2023/11/11 00:03:40;;;;;;;6.40;2.50;;;;;;;;;;5030369;28;20017;-73
2023/11/11 00:06:06;;;;;;;7.13;2.55;;;;;;;;;;5028360;28;20029;-74
2023/11/11 00:08:34;;;;;;;5.28;2.70;;;;;;;;;;5032181;28;20028;-74
2023/11/11 00:11:02;;;;;;;5.85;2.30;;;;;;;;;;5034384;28;20460;-72
2023/11/11 00:13:27;;;;;;;4.97;2.28;;;;;;;;;;5026384;28;20021;-75
2023/11/11 00:15:55;;;;;;;5.57;2.58;;;;;;;;;;5029936;28;20804;-73
2023/11/11 00:18:20;;;;;;;5.07;2.33;;;;;;;;;;5031729;28;20050;-73
2023/11/11 00:20:48;;;;;;;5.80;2.60;;;;;;;;;;5029596;28;20052;-74
2023/11/11 00:23:14;;;;;;;5.55;2.40;;;;;;;;;;5024466;28;20014;-72
2023/11/11 00:25:42;;;;;;;4.80;2.35;;;;;;;;;;5026849;28;20032;-72
2023/11/11 00:28:10;;;;;;;4.68;2.17;;;;;;;;;;5025882;28;20086;-71
2023/11/11 00:30:36;;;;;;;4.78;2.63;;;;;;;;;;5034271;28;20032;-74
2023/11/11 00:33:01;;;;;;;5.25;2.67;;;;;;;;;;5031612;28;20025;-73
2023/11/11 00:35:26;;;;;;;6.10;2.95;;;;;;;;;;5035045;28;20021;-74
2023/11/11 00:37:51;;;;;;;5.50;2.78;;;;;;;;;;5033355;28;20028;-73
2023/11/11 00:40:17;;;;;;;6.63;2.90;;;;;;;;;;5041807;28;20021;-73
2023/11/11 00:43:00;;;;;;;5.40;3.10;;;;;;;;;;5033735;28;20035;-74
2023/11/11 00:45:25;;;;;;;6.80;2.97;;;;;;;;;;5034994;28;20026;-72
2023/11/11 00:47:51;;;;;;;4.93;2.42;;;;;;;;;;5032606;28;20031;-75
2023/11/11 00:50:18;;;;;;;5.25;2.72;;;;;;;;;;5022415;28;20016;-74
2023/11/11 00:52:46;;;;;;;5.40;2.65;;;;;;;;;;5030381;28;20028;-73
2023/11/11 00:55:11;;;;;;;5.72;2.88;;;;;;;;;;5028473;28;20062;-74
2023/11/11 00:57:39;;;;;;;5.13;2.60;;;;;;;;;;5034003;28;20024;-74
2023/11/11 01:00:04;;;;;;;5.18;2.38;;;;;;;;;;5031434;28;20041;-74
2023/11/11 01:02:30;;;;;;;5.20;2.28;;;;;;;;;;5029173;28;20144;-73
2023/11/11 01:04:55;;;;;;;4.47;1.98;;;;;;;;;;5029455;28;20124;-71
2023/11/11 01:07:20;;;;;;;4.97;2.15;;;;;;;;;;5037403;28;20033;-72
2023/11/11 01:09:45;;;;;;;5.45;2.25;;;;;;;;;;5031072;28;20576;-72
2023/11/11 01:12:12;;;;;;;4.93;2.08;;;;;;;;;;5023493;28;20045;-73
2023/11/11 01:14:37;;;;;;;6.18;2.35;;;;;;;;;;5035346;28;20037;-73
2023/11/11 01:17:05;;;;;;;4.53;1.80;;;;;;;;;;5032832;28;20017;-71
2023/11/11 01:19:30;;;;;;;5.85;2.10;;;;;;;;;;5035759;28;20678;-75
2023/11/11 01:21:55;;;;;;;4.18;1.67;;;;;;;;;;5035120;28;20021;-73
2023/11/11 01:24:21;;;;;;;4.28;1.80;;;;;;;;;;5030593;28;20135;-74
2023/11/11 01:26:46;;;;;;;4.38;1.67;;;;;;;;;;5027972;28;20472;-73
2023/11/11 01:29:14;;;;;;;4.80;1.63;;;;;;;;;;5032452;28;20025;-74
2023/11/11 01:31:40;;;;;;;5.43;1.65;;;;;;;;;;5028215;28;20232;-74
2023/11/11 01:34:07;;;;;;;3.95;1.38;;;;;;;;;;5034816;28;20479;-74
2023/11/11 01:36:34;;;;;;;4.75;1.77;;;;;;;;;;5032030;28;20021;-73
2023/11/11 01:38:59;;;;;;;4.03;1.50;;;;;;;;;;5033938;28;20055;-73
2023/11/11 01:41:25;;;;;;;3.83;1.50;;;;;;;;;;5031885;28;20017;-74
2023/11/11 01:43:50;;;;;;;3.72;1.33;;;;;;;;;;5028223;28;20032;-74
2023/11/11 01:46:15;;;;;;;3.45;1.27;;;;;;;;;;5038951;28;20033;-74
2023/11/11 01:48:42;;;;;;;3.67;1.30;;;;;;;;;;5029094;28;20085;-74
2023/11/11 01:51:07;;;;;;;6.50;1.92;;;;;;;;;;5034577;28;20027;-72
2023/11/11 01:53:34;;;;;;;3.50;1.30;;;;;;;;;;5036086;28;20017;-72
2023/11/11 01:55:59;;;;;;;4.05;1.48;;;;;;;;;;5063555;28;20028;-71
2023/11/11 01:58:27;;;;;;;3.83;1.52;;;;;;;;;;5038443;28;20054;-73
2023/11/11 02:00:53;;;;;;;4.40;1.70;;;;;;;;;;5032736;28;20128;-73
2023/11/11 02:03:20;;;;;;;5.20;1.45;;;;;;;;;;5030011;28;20009;-71
2023/11/11 02:05:46;;;;;;;3.90;1.67;;;;;;;;;;5034959;28;20045;-75
2023/11/11 02:08:11;;;;;;;4.10;1.60;;;;;;;;;;5022785;28;20023;-74
2023/11/11 02:10:38;;;;;;;4.28;1.60;;;;;;;;;;5030509;28;20021;-73
2023/11/11 02:13:05;;;;;;;3.85;1.40;;;;;;;;;;5033335;28;20074;-72
2023/11/11 02:15:31;;;;;;;4.55;1.73;;;;;;;;;;5030360;28;20136;-73
2023/11/11 02:18:00;;;;;;;4.93;1.52;;;;;;;;;;5031084;28;20532;-72
2023/11/11 02:20:26;;;;;;;3.78;1.40;;;;;;;;;;5025707;28;20366;-72
2023/11/11 02:22:51;;;;;;;4.55;1.63;;;;;;;;;;5024175;28;20023;-73
2023/11/11 02:25:17;;;;;;;4.28;1.83;;;;;;;;;;5028305;28;20029;-72
2023/11/11 02:27:45;;;;;;;4.93;1.60;;;;;;;;;;5030584;28;20071;-75
2023/11/11 02:30:11;;;;;;;3.50;1.50;;;;;;;;;;5036569;28;20021;-71
2023/11/11 02:32:41;;;;;;;3.90;1.58;;;;;;;;;;5031578;28;20110;-73
2023/11/11 02:35:06;;;;;;;5.65;1.98;;;;;;;;;;5028245;28;20108;-72
2023/11/11 02:37:31;;;;;;;4.20;1.65;;;;;;;;;;5031835;28;20696;-75
2023/11/11 02:39:56;;;;;;;5.88;1.92;;;;;;;;;;5030293;28;20036;-73
2023/11/11 02:42:22;;;;;;;5.10;1.70;;;;;;;;;;5031251;28;20651;-74
2023/11/11 02:44:47;;;;;;;5.60;1.90;;;;;;;;;;5037180;28;20190;-74
2023/11/11 02:47:15;;;;;;;4.95;1.80;;;;;;;;;;5029730;28;20037;-74
2023/11/11 02:49:40;;;;;;;4.15;1.58;;;;;;;;;;5023457;28;20017;-74
2023/11/11 02:52:06;;;;;;;3.58;1.48;;;;;;;;;;5023195;28;20098;-74
2023/11/11 02:54:31;;;;;;;4.50;1.52;;;;;;;;;;5026120;28;20100;-73
2023/11/11 02:56:59;;;;;;;3.95;1.48;;;;;;;;;;5027683;28;20102;-74
2023/11/11 02:59:24;;;;;;;3.92;1.50;;;;;;;;;;5024558;28;20022;-73
2023/11/11 03:01:52;;;;;;;3.90;1.42;;;;;;;;;;5031422;28;20049;-71
2023/11/11 03:04:21;;;;;;;4.40;1.70;;;;;;;;;;5036744;28;20096;-74
2023/11/11 03:06:48;;;;;;;5.13;1.65;;;;;;;;;;5034913;28;20305;-73
2023/11/11 03:09:15;;;;;;;4.00;1.55;;;;;;;;;;5062741;28;20029;-74
2023/11/11 03:11:40;;;;;;;4.22;1.60;;;;;;;;;;5036151;28;20013;-72
2023/11/11 03:14:06;;;;;;;3.67;1.30;;;;;;;;;;5028716;28;20041;-73
2023/11/11 03:16:39;;;;;;;4.93;1.52;;;;;;;;;;5028388;28;20033;-74
2023/11/11 03:19:04;;;;;;;5.05;1.40;;;;;;;;;;5027169;28;20033;-73
2023/11/11 03:21:30;;;;;;;4.28;1.50;;;;;;;;;;5028659;28;20476;-72
2023/11/11 03:23:58;;;;;;;3.78;1.40;;;;;;;;;;5035715;28;20103;-74
2023/11/11 03:26:24;;;;;;;4.50;1.60;;;;;;;;;;5030717;28;20125;-72
2023/11/11 03:28:49;;;;;;;4.20;1.60;;;;;;;;;;5031488;28;20102;-73
2023/11/11 03:31:17;;;;;;;4.47;1.70;;;;;;;;;;5030283;28;20024;-71
2023/11/11 03:33:42;;;;;;;4.80;1.52;;;;;;;;;;5028530;28;20472;-74
2023/11/11 03:36:07;;;;;;;4.40;1.65;;;;;;;;;;5026609;28;20144;-74
2023/11/11 03:38:32;;;;;;;3.67;1.42;;;;;;;;;;5031013;28;20047;-70
2023/11/11 03:41:00;;;;;;;4.05;1.42;;;;;;;;;;5032655;28;20017;-73
2023/11/11 03:43:27;;;;;;;4.03;1.60;;;;;;;;;;5030209;28;20539;-72
2023/11/11 03:45:53;;;;;;;3.42;1.27;;;;;;;;;;5029802;28;20028;-72
2023/11/11 03:48:18;;;;;;;3.90;1.23;;;;;;;;;;5028157;28;20392;-73
2023/11/11 03:50:44;;;;;;;4.47;1.38;;;;;;;;;;5027835;28;20388;-72
2023/11/11 03:53:10;;;;;;;4.43;1.55;;;;;;;;;;5032670;28;20104;-73
2023/11/11 03:55:35;;;;;;;3.63;1.25;;;;;;;;;;5027647;28;20033;-73
2023/11/11 03:58:01;;;;;;;3.47;1.02;;;;;;;;;;5031066;28;20645;-71
2023/11/11 04:00:26;;;;;;;3.70;1.20;;;;;;;;;;5029082;28;20091;-73
2023/11/11 04:02:56;;;;;;;3.13;1.17;;;;;;;;;;5015848;28;20114;-73
2023/11/11 04:05:22;;;;;;;4.88;1.40;;;;;;;;;;5026946;28;20032;-74
2023/11/11 04:07:50;;;;;;;3.83;1.27;;;;;;;;;;5032021;28;20018;-72
2023/11/11 04:10:17;;;;;;;3.55;1.38;;;;;;;;;;5037495;28;20017;-74
2023/11/11 04:12:45;;;;;;;3.25;1.20;;;;;;;;;;5032345;28;20013;-72
2023/11/11 04:15:10;;;;;;;3.38;1.20;;;;;;;;;;5033249;28;20032;-72
2023/11/11 04:17:45;;;;;;;4.45;1.13;;;;;;;;;;5035278;28;20021;-73
2023/11/11 04:20:11;;;;;;;3.05;1.05;;;;;;;;;;5038021;28;20032;-74
2023/11/11 04:22:39;;;;;;;3.80;1.05;;;;;;;;;;5028417;28;20021;-73
2023/11/11 04:25:08;;;;;;;2.80;1.02;;;;;;;;;;5059912;28;20021;-72
2023/11/11 04:27:35;;;;;;;3.45;1.00;;;;;;;;;;5030764;28;20024;-74
2023/11/11 04:30:00;;;;;;;3.10;1.00;;;;;;;;;;5028650;28;20036;-73
2023/11/11 04:32:26;;;;;;;3.00;1.02;;;;;;;;;;5030243;28;20070;-73
2023/11/11 04:34:51;;;;;;;3.85;1.00;;;;;;;;;;5036479;28;20017;-73
2023/11/11 04:37:19;;;;;;;3.20;1.00;;;;;;;;;;5037061;28;20053;-74
2023/11/11 04:39:50;;;;;;;2.63;1.00;;;;;;;;;;5037052;28;20079;-72
2023/11/11 04:42:18;;;;;;;2.80;1.00;;;;;;;;;;5027902;28;20028;-73
2023/11/11 04:44:43;;;;;;;3.90;0.95;;;;;;;;;;5035987;28;20033;-72
2023/11/11 04:47:09;;;;;;;2.47;0.90;;;;;;;;;;5036948;28;20036;-72
2023/11/11 04:49:35;;;;;;;3.28;1.00;;;;;;;;;;5029044;28;20025;-74
2023/11/11 04:52:00;;;;;;;3.13;1.02;;;;;;;;;;5033529;28;20021;-73
2023/11/11 04:54:26;;;;;;;2.80;0.90;;;;;;;;;;5028327;28;20025;-73
2023/11/11 04:56:52;;;;;;;4.07;1.00;;;;;;;;;;5032199;28;20081;-73
2023/11/11 04:59:19;;;;;;;3.10;0.90;;;;;;;;;;5032429;28;20026;-72
2023/11/11 05:01:45;;;;;;;2.55;0.80;;;;;;;;;;5032250;28;20136;-73
2023/11/11 05:04:11;;;;;;;6.32;1.10;;;;;;;;;;5034881;28;20021;-72
2023/11/11 05:06:36;;;;;;;2.70;0.80;;;;;;;;;;5033953;28;20027;-72
2023/11/11 05:09:04;;;;;;;3.05;0.90;;;;;;;;;;5029269;28;20129;-73
2023/11/11 05:11:30;;;;;;;2.53;0.82;;;;;;;;;;5034853;28;20021;-74
2023/11/11 05:13:56;;;;;;;3.45;1.00;;;;;;;;;;5034633;28;20021;-72
2023/11/11 05:16:26;;;;;;;2.85;0.88;;;;;;;;;;5034516;28;20345;-73
2023/11/11 05:18:52;;;;;;;3.67;0.90;;;;;;;;;;5035487;28;20056;-71
2023/11/11 05:21:17;;;;;;;3.53;0.90;;;;;;;;;;5032385;28;20480;-74
2023/11/11 05:23:43;;;;;;;4.10;0.95;;;;;;;;;;5034524;28;20107;-72
2023/11/11 05:26:08;;;;;;;2.25;0.82;;;;;;;;;;5031017;28;20741;-73
2023/11/11 05:28:35;;;;;;;3.35;1.00;;;;;;;;;;5032338;28;20025;-73
2023/11/11 05:31:01;;;;;;;3.50;1.00;;;;;;;;;;5029147;28;20048;-74
2023/11/11 05:33:28;;;;;;;3.33;0.95;;;;;;;;;;5033477;28;20013;-73
2023/11/11 05:35:54;;;;;;;3.00;0.90;;;;;;;;;;5037290;28;20185;-72
2023/11/11 05:38:21;;;;;;;3.63;0.80;;;;;;;;;;5035210;28;20038;-73
2023/11/11 05:40:46;;;;;;;2.40;0.70;;;;;;;;;;5030317;28;20028;-73
2023/11/11 05:43:12;;;;;;;2.63;0.80;;;;;;;;;;5030665;28;20025;-74
2023/11/11 05:45:37;;;;;;;3.30;1.00;;;;;;;;;;5036305;28;20057;-72
2023/11/11 05:48:03;;;;;;;2.83;0.80;;;;;;;;;;5037178;28;20593;-73
2023/11/11 05:50:31;;;;;;;3.75;0.90;;;;;;;;;;5029409;28;20756;-70
2023/11/11 05:52:56;;;;;;;3.65;0.90;;;;;;;;;;5016411;28;20114;-73
2023/11/11 05:55:21;;;;;;;1.60;0.68;;;;;;;;;;5024872;28;20553;-72
2023/11/11 05:57:49;;;;;;;3.08;0.63;;;;;;;;;;5027690;28;20021;-72
2023/11/11 06:00:17;;;;;;;2.15;0.55;;;;;;;;;;5021885;28;20018;-72
2023/11/11 06:02:43;;;;;;;2.40;0.68;;;;;;;;;;5054835;28;20049;-74
2023/11/11 06:05:08;;;;;;;3.40;1.45;;;;;;;;;;5019914;28;20129;-73
2023/11/11 06:07:34;;;;;;;3.33;0.82;;;;;;;;;;5022683;28;20036;-71
2023/11/11 06:09:59;;;;;;;2.88;0.80;;;;;;;;;;5018669;28;20484;-73
2023/11/11 06:12:24;;;;;;;2.67;0.70;;;;;;;;;;5026479;28;20952;-72
2023/11/11 06:14:49;;;;;;;2.28;0.80;;;;;;;;;;5026261;28;20045;-71
2023/11/11 06:17:15;;;;;;;2.70;0.68;;;;;;;;;;5022128;28;20480;-72
2023/11/11 06:19:40;;;;;;;2.42;0.70;;;;;;;;;;5024212;28;20195;-71
2023/11/11 06:22:08;;;;;;;2.75;0.73;;;;;;;;;;5025681;28;20024;-72
2023/11/11 06:24:35;;;;;;;3.58;0.88;;;;;;;;;;5022066;28;20450;-72
2023/11/11 06:27:01;;;;;;;2.42;0.70;;;;;;;;;;5027531;28;20044;-71
2023/11/11 06:29:26;;;;;;;2.40;0.75;;;;;;;;;;5028744;28;20332;-74
2023/11/11 06:31:52;;;;;;;2.28;0.73;;;;;;;;;;5026463;28;20102;-73
2023/11/11 06:34:19;;;;;;;2.40;0.80;;;;;;;;;;5023613;28;21174;-72
2023/11/11 06:36:46;;;;;;;1.80;0.60;;;;;;;;;;5033331;28;20026;-74
2023/11/11 06:39:13;;;;;;;2.33;0.63;;;;;;;;;;5032846;28;20476;-74
2023/11/11 06:41:38;;;;;;;1.70;0.60;;;;;;;;;;5024406;28;20032;-74
2023/11/11 06:44:05;;;;;;;1.92;0.60;;;;;;;;;;5034406;28;20002;-74
2023/11/11 06:46:30;;;;;;;2.72;0.80;;;;;;;;;;5032813;28;20036;-72
2023/11/11 06:48:56;;;;;;;3.17;0.90;;;;;;;;;;5035818;28;20017;-74
2023/11/11 06:51:22;;;;;;;2.28;0.63;;;;;;;;;;5029277;28;20098;-73
2023/11/11 06:53:47;;;;;;;1.75;0.60;;;;;;;;;;5033028;28;20398;-75
2023/11/11 06:56:15;;;;;;;2.28;0.73;;;;;;;;;;5030868;28;20040;-74
2023/11/11 06:58:41;;;;;;;2.70;0.80;;;;;;;;;;5039824;28;20569;-73
2023/11/11 07:01:07;;;;;;;3.80;0.80;;;;;;;;;;5032642;28;20052;-71
2023/11/11 07:03:35;;;;;;;5.13;2.28;;;;;;;;;;5035455;28;20038;-73
2023/11/11 07:06:03;;;;;;;2.73;0.70;;;;;;;;;;5030267;28;20467;-74
2023/11/11 07:08:28;;;;;;;2.83;0.73;;;;;;;;;;5028568;28;20033;-73
2023/11/11 07:10:53;;;;;;;2.00;0.70;;;;;;;;;;5026987;28;20178;-73
2023/11/11 07:13:20;;;;;;;2.22;0.80;;;;;;;;;;5032261;28;20676;-71
2023/11/11 07:15:48;;;;;;;2.58;0.70;;;;;;;;;;5030133;28;20021;-74
2023/11/11 07:18:15;;;;;;;2.80;1.00;;;;;;;;;;5032129;28;20414;-72
2023/11/11 07:20:40;;;;;;;1.88;0.60;;;;;;;;;;5023588;28;20049;-73
2023/11/11 07:23:06;;;;;;;2.40;0.77;;;;;;;;;;5027101;28;20112;-72
2023/11/11 07:25:33;;;;;;;2.05;0.63;;;;;;;;;;5031302;28;20056;-74
2023/11/11 07:28:04;;;;;;;2.65;0.70;;;;;;;;;;5028267;28;20029;-73
2023/11/11 07:30:29;;;;;;;3.08;1.00;;;;;;;;;;5035255;28;20846;-72
2023/11/11 07:32:57;;;;;;;2.63;0.90;;;;;;;;;;5024154;28;20098;-72
2023/11/11 07:35:22;;;;;;;3.35;0.75;;;;;;;;;;5029978;28;20013;-73
2023/11/11 07:37:49;;;;;;;2.65;0.70;;;;;;;;;;5027296;28;20024;-74
2023/11/11 07:40:15;;;;;;;2.80;0.88;;;;;;;;;;5026527;28;20012;-73
2023/11/11 07:42:40;;;;;;;3.70;0.88;;;;;;;;;;5027574;28;20024;-72
2023/11/11 07:45:06;;;;;;;2.67;0.90;;;;;;;;;;5031988;28;20033;-72
2023/11/11 07:47:34;;;;;;;2.88;0.90;;;;;;;;;;5031145;28;21033;-73
2023/11/11 07:50:00;;;;;;;3.08;0.93;;;;;;;;;;5027280;28;20026;-71
2023/11/11 07:52:25;;;;;;;2.80;0.80;;;;;;;;;;5028063;28;20244;-73
2023/11/11 07:54:50;;;;;;;2.33;0.80;;;;;;;;;;5030622;28;20052;-71
2023/11/11 07:57:18;;;;;;;2.50;0.80;;;;;;;;;;5028382;28;20543;-71
2023/11/11 07:59:44;;;;;;;3.33;0.90;;;;;;;;;;5031640;28;20433;-72
2023/11/11 08:02:14;;;;;;;3.10;0.82;;;;;;;;;;5029788;28;20064;-73
2023/11/11 08:04:45;;;;;;;4.88;1.20;;;;;;;;;;5027226;28;20103;-75
2023/11/11 08:07:11;;;;;;;2.90;1.00;;;;;;;;;;5034426;28;20037;-72
2023/11/11 08:09:39;;;;;;;2.28;0.80;;;;;;;;;;5032597;28;20028;-71
2023/11/11 08:12:07;;;;;;;4.95;1.40;;;;;;;;;;5033754;28;20349;-74
2023/11/11 08:14:34;;;;;;;8.45;3.00;;;;;;;;;;5029533;28;20044;-74
2023/11/11 08:17:00;;;;;;;6.40;2.05;;;;;;;;;;5037717;28;20454;-75
2023/11/11 08:19:27;;;;;;;5.03;1.88;;;;;;;;;;5028195;28;20036;-73
2023/11/11 08:21:53;;;;;;;5.35;2.05;;;;;;;;;;5031566;28;20092;-71
2023/11/11 08:24:18;;;;;;;4.72;1.38;;;;;;;;;;5031562;28;20015;-74
2023/11/11 08:26:48;;;;;;;2.97;0.95;;;;;;;;;;5028605;28;20024;-73
2023/11/11 08:29:14;;;;;;;2.75;0.77;;;;;;;;;;5026017;28;20898;-74
2023/11/11 08:31:40;;;;;;;2.55;0.75;;;;;;;;;;5029921;28;20029;-73
2023/11/11 08:34:06;;;;;;;3.35;0.80;;;;;;;;;;5029296;28;20099;-75
2023/11/11 08:36:31;;;;;;;2.88;0.90;;;;;;;;;;5037662;28;20025;-74
2023/11/11 08:38:56;;;;;;;2.33;0.68;;;;;;;;;;5032408;28;20095;-72
2023/11/11 08:41:22;;;;;;;2.67;0.88;;;;;;;;;;5036592;28;20116;-76
2023/11/11 08:43:47;;;;;;;3.08;0.95;;;;;;;;;;5037213;28;20116;-74
2023/11/11 08:46:12;;;;;;;3.58;0.90;;;;;;;;;;5029209;28;20086;-75
2023/11/11 08:48:40;;;;;;;3.05;0.90;;;;;;;;;;5030038;28;20025;-73
2023/11/11 08:51:11;;;;;;;4.85;1.00;;;;;;;;;;5031080;28;20017;-72
2023/11/11 08:53:36;;;;;;;2.42;0.82;;;;;;;;;;5032908;28;20813;-74
2023/11/11 08:56:02;;;;;;;2.90;1.00;;;;;;;;;;5032396;28;20033;-72
2023/11/11 08:58:27;;;;;;;3.58;1.20;;;;;;;;;;5034547;28;20405;-72
2023/11/11 09:00:53;;;;;;;5.10;1.25;;;;;;;;;;5030487;28;21058;-73
2023/11/11 09:03:18;;;;;;;3.70;1.25;;;;;;;;;;5033343;28;21502;-72
2023/11/11 09:05:43;;;;;;;3.67;1.20;;;;;;;;;;5029551;28;20075;-74
2023/11/11 09:08:08;;;;;;;4.15;1.60;;;;;;;;;;5031017;28;20033;-74
2023/11/11 09:10:34;;;;;;;3.75;1.23;;;;;;;;;;5029543;28;20598;-73
2023/11/11 09:12:59;;;;;;;4.28;1.27;;;;;;;;;;5035094;28;20102;-75
2023/11/11 09:15:27;;;;;;;3.90;1.25;;;;;;;;;;5030007;28;21177;-74
2023/11/11 09:17:53;;;;;;;6.00;1.30;;;;;;;;;;5040021;28;20025;-75
2023/11/11 09:20:22;;;;;;;3.95;1.23;;;;;;;;;;5040433;28;20017;-74
2023/11/11 09:22:49;;;;;;;4.95;1.10;;;;;;;;;;5033549;28;20018;-76
2023/11/11 09:25:16;;;;;;;3.95;1.10;;;;;;;;;;5033055;28;20467;-74
2023/11/11 09:27:44;;;;;;;2.88;0.90;;;;;;;;;;5032712;28;20029;-76
2023/11/11 09:30:10;;;;;;;6.25;1.40;;;;;;;;;;5033058;28;20113;-74
2023/11/11 09:32:35;;;;;;;6.32;1.48;;;;;;;;;;5035886;28;20021;-75
2023/11/11 09:35:00;;;;;;;6.07;1.35;;;;;;;;;;5035790;28;20033;-75
2023/11/11 09:37:26;;;;;;;2.97;0.90;;;;;;;;;;5035885;28;20021;-75
2023/11/11 09:39:51;;;;;;;3.28;1.05;;;;;;;;;;5035582;28;20151;-76
2023/11/11 09:42:17;;;;;;;2.88;0.82;;;;;;;;;;5037819;28;20099;-76
2023/11/11 09:44:42;;;;;;;2.88;0.80;;;;;;;;;;5042777;28;20520;-75
2023/11/11 09:47:10;;;;;;;1.95;0.70;;;;;;;;;;5038850;28;20124;-70
2023/11/11 09:49:38;;;;;;;2.75;0.77;;;;;;;;;;5036346;28;20024;-75
2023/11/11 09:52:06;;;;;;;2.22;0.60;;;;;;;;;;5030448;28;20065;-75
2023/11/11 09:54:32;;;;;;;2.60;0.75;;;;;;;;;;5031897;28;20027;-75
2023/11/11 09:57:00;;;;;;;2.63;0.80;;;;;;;;;;5039777;28;20432;-73
2023/11/11 09:59:26;;;;;;;3.38;0.80;;;;;;;;;;5028061;28;20083;-75
2023/11/11 10:01:52;;;;;;;3.30;0.80;;;;;;;;;;5032183;28;20054;-74
2023/11/11 10:04:19;;;;;;;2.67;0.80;;;;;;;;;;5037144;28;20021;-74
2023/11/11 10:06:45;;;;;;;2.65;0.70;;;;;;;;;;5025838;28;20033;-71
2023/11/11 10:09:12;;;;;;;2.85;0.82;;;;;;;;;;5028872;28;20103;-73
2023/11/11 10:11:38;;;;;;;2.53;0.80;;;;;;;;;;5031558;28;20021;-75
2023/11/11 10:14:04;;;;;;;2.92;1.10;;;;;;;;;;5035672;28;20039;-73
2023/11/11 10:16:32;;;;;;;2.38;0.50;;;;;;;;;;5035482;28;20676;-74
2023/11/11 10:18:58;;;;;;;2.17;0.70;;;;;;;;;;5036155;28;20042;-75
2023/11/11 10:21:26;;;;;;;1.73;0.60;;;;;;;;;;5031846;28;20484;-74
2023/11/11 10:23:55;;;;;;;2.13;0.77;;;;;;;;;;5032891;28;20689;-75
2023/11/11 10:26:22;;;;;;;2.17;0.70;;;;;;;;;;5031177;28;20040;-74
2023/11/11 10:28:48;;;;;;;2.65;0.70;;;;;;;;;;5028447;28;20328;-74
2023/11/11 10:31:14;;;;;;;1.98;0.70;;;;;;;;;;5037630;28;20028;-72
2023/11/11 10:33:39;;;;;;;1.92;0.50;;;;;;;;;;5032808;28;20107;-72
2023/11/11 10:36:07;;;;;;;2.67;0.70;;;;;;;;;;5030702;28;20096;-73
2023/11/11 10:38:32;;;;;;;2.22;0.70;;;;;;;;;;5032183;28;20021;-75
2023/11/11 10:40:59;;;;;;;2.03;0.70;;;;;;;;;;5032313;28;20024;-72
2023/11/11 10:43:27;;;;;;;3.65;1.00;;;;;;;;;;5035053;28;20022;-75
2023/11/11 10:45:55;;;;;;;1.45;0.50;;;;;;;;;;5029207;28;20036;-75
2023/11/11 10:48:24;;;;;;;2.00;0.60;;;;;;;;;;5029399;28;20036;-73
2023/11/11 10:50:53;;;;;;;4.25;1.48;;;;;;;;;;5032304;28;20094;-73
2023/11/11 10:53:18;;;;;;;3.35;1.02;;;;;;;;;;5031107;28;20021;-73
2023/11/11 10:55:50;;;;;;;2.92;0.95;;;;;;;;;;5038119;28;20028;-75
2023/11/11 10:58:19;;;;;;;3.10;0.73;;;;;;;;;;5062626;28;20970;-70
2023/11/11 11:00:48;;;;;;;2.95;0.80;;;;;;;;;;5031888;28;20465;-69
2023/11/11 11:03:14;;;;;;;;;;;;;;;;;;5032103;28;20703;-68
2023/11/11 11:05:39;;;;;;;;;;;;;;;;;;5037598;28;19943;-70
2023/11/11 11:08:06;;;;;;;;;;;;;;;;;;5033627;28;20655;-74
2023/11/11 11:10:32;;;;;;;;;;;;;;;;;;5031621;28;19963;-69
2023/11/11 11:12:57;;;;;;;;;;;;;;;;;;5032086;28;19920;-69
2023/11/11 11:15:24;;;;;;;;;;;;;;;;;;5034559;28;19908;-70
2023/11/11 11:17:51;;;;;;;;;;;;;;;;;;5033322;28;20331;-70
2023/11/11 11:20:20;;;;;;;;;;;;;;;;;;5035530;28;19939;-69
2023/11/11 11:22:48;;;;;;;;;;;;;;;;;;5033093;28;20340;-70
2023/11/11 11:25:13;;;;;;;;;;;;;;;;;;5035552;28;19959;-69
2023/11/11 11:27:38;;;;;;;;;;;;;;;;;;5030260;28;19909;-69
2023/11/11 11:30:06;;;;;;;;;;;;;;;;;;5031585;28;20002;-72
2023/11/11 11:32:34;;;;;;;;;;;;;;;;;;5026937;28;19934;-71
2023/11/11 11:34:59;;;;;;;;;;;;;;;;;;5033422;28;19947;-71
2023/11/11 11:37:24;;;;;;;;;;;;;;;;;;5038119;28;20463;-72
2023/11/11 11:39:50;;;;;;;;;;;;;;;;;;5033875;28;19908;-73
2023/11/11 11:42:17;;;;;;;;;;;;;;;;;;5030699;28;19932;-72
2023/11/11 11:44:47;;;;;;;;;;;;;;;;;;5033280;28;19920;-72
2023/11/11 11:47:12;;;;;;;;;;;;;;;;;;5020853;28;20177;-72
2023/11/11 11:49:39;;;;;;;;;;;;;;;;;;5026264;28;19913;-72
2023/11/11 11:52:06;;;;;;;;;;;;;;;;;;5032701;28;19913;-71
2023/11/11 11:54:31;;;;;;;;;;;;;;;;;;5033430;28;20062;-71
2023/11/11 11:56:57;;;;;;;;;;;;;;;;;;5030778;28;19913;-71
2023/11/11 11:59:26;;;;;;;;;;;;;;;;;;5038243;28;19916;-72
2023/11/11 12:01:51;;;;;;;;;;;;;;;;;;5035408;28;20027;-71
2023/11/11 12:04:18;;;;;;;;;;;;;;;;;;5025779;28;20332;-70
2023/11/11 12:06:45;;;;;;;;;;;;;;;;;;5030338;28;19927;-70
2023/11/11 12:09:12;;;;;;;;;;;;;;;;;;5029604;28;19963;-71
2023/11/11 12:11:37;;;;;;;;;;;;;;;;;;5032211;28;20043;-69
2023/11/11 12:14:03;;;;;;;;;;;;;;;;;;5034803;28;20680;-70
2023/11/11 12:16:28;;;;;;;;;;;;;;;;;;5030195;28;19951;-71
2023/11/11 12:18:53;;;;;;;;;;;;;;;;;;5033501;28;19917;-70
2023/11/11 12:21:18;;;;;;;;;;;;;;;;;;5061188;28;19916;-71
2023/11/11 12:23:43;;;;;;;;;;;;;;;;;;5038715;28;19936;-71
2023/11/11 12:26:09;;;;;;;;;;;;;;;;;;5043050;28;19917;-70
2023/11/11 12:28:35;;;;;;;;;;;;;;;;;;5029939;28;19913;-71
2023/11/11 12:31:00;;;;;;;;;;;;;;;;;;5032409;28;20462;-70
2023/11/11 12:33:25;;;;;;;;;;;;;;;;;;5038615;28;19979;-71
2023/11/11 12:35:50;;;;;;;;;;;;;;;;;;5035946;28;20599;-71
2023/11/11 12:38:15;;;;;;;;;;;;;;;;;;5042898;28;19932;-71
2023/11/11 12:40:40;;;;;;;;;;;;;;;;;;5041936;28;19974;-71
2023/11/11 12:43:08;;;;;;;;;;;;;;;;;;5037357;28;19913;-71
2023/11/11 12:45:33;;;;;;;;;;;;;;;;;;5041705;28;19932;-71
2023/11/11 12:47:58;;;;;;;;;;;;;;;;;;5035873;28;19908;-70
2023/11/11 12:50:23;;;;;;;;;;;;;;;;;;5034786;28;19923;-71
2023/11/11 12:52:49;;;;;;;;;;;;;;;;;;5059903;28;20008;-71
2023/11/11 12:55:14;;;;;;;;;;;;;;;;;;5034976;28;20322;-71
2023/11/11 12:57:39;;;;;;;;;;;;;;;;;;5031800;28;19943;-72
2023/11/11 13:00:07;;;;;;;;;;;;;;;;;;5036407;28;19905;-72
2023/11/11 13:02:32;;;;;;;;;;;;;;;;;;5032903;28;19929;-72
2023/11/11 13:04:57;;;;;;;;;;;;;;;;;;5031281;28;19960;-70
2023/11/11 13:07:24;;;;;;;;;;;;;;;;;;5025295;28;19920;-71
2023/11/11 13:09:49;;;;;;;;;;;;;;;;;;5049650;28;19909;-71
2023/11/11 13:12:15;;;;;;;;;;;;;;;;;;5035679;28;19920;-71
2023/11/11 13:14:40;;;;;;;;;;;;;;;;;;5031622;28;19921;-72
2023/11/11 13:17:07;;;;;;;;;;;;;;;;;;5034935;28;19924;-71
2023/11/11 13:19:34;;;;;;;;;;;;;;;;;;5030314;28;19912;-72
2023/11/11 13:21:59;;;;;;;;;;;;;;;;;;5039362;28;20007;-72
2023/11/11 13:24:24;;;;;;;;;;;;;;;;;;5030106;28;19912;-71
2023/11/11 13:26:51;;;;;;;;;;;;;;;;;;5023197;28;19912;-71
2023/11/11 13:29:16;;;;;;;;;;;;;;;;;;5023294;28;20006;-71
2023/11/11 13:31:46;;;;;;;;;;;;;;;;;;5027835;28;20007;-71
2023/11/11 13:34:11;;;;;;;;;;;;;;;;;;5020631;28;19916;-70
2023/11/11 13:36:40;;;;;;;;;;;;;;;;;;5020192;28;20316;-71
2023/11/11 13:39:08;;;;;;;;;;;;;;;;;;5029166;28;19913;-71
2023/11/11 13:41:36;;;;;;;;;;;;;;;;;;5029076;28;20314;-70
2023/11/11 13:44:01;;;;;;;;;;;;;;;;;;5023795;28;19920;-70
2023/11/11 13:46:26;;;;;;;;;;;;;;;;;;5028074;28;19920;-70
2023/11/11 13:48:51;;;;;;;;;;;;;;;;;;5021853;28;20259;-70
2023/11/11 13:51:16;;;;;;;;;;;;;;;;;;5019929;28;19913;-72
2023/11/11 13:53:46;;;;;;;;;;;;;;;;;;5033213;28;20513;-71
2023/11/11 13:56:11;;;;;;;;;;;;;;;;;;5022894;28;19943;-69
2023/11/11 13:58:36;;;;;;;;;;;;;;;;;;5036168;28;19909;-71
2023/11/11 14:01:01;;;;;;;;;;;;;;;;;;5020721;28;20209;-71
2023/11/11 14:03:26;;;;;;;;;;;;;;;;;;5019437;28;19970;-71
2023/11/11 14:05:52;;;;;;;;;;;;;;;;;;5029098;28;19920;-71
2023/11/11 14:08:17;;;;;;;;;;;;;;;;;;5033442;28;19934;-72
2023/11/11 14:10:50;;;;;;;;;;;;;;;;;;5031277;28;19913;-71
2023/11/11 14:13:15;;;;;;;;;;;;;;;;;;5035913;28;19944;-71
2023/11/11 14:15:45;;;;;;;;;;;;;;;;;;5025444;28;20004;-71
2023/11/11 14:18:12;;;;;;;;;;;;;;;;;;5030991;28;19909;-71
2023/11/11 14:20:37;;;;;;;;;;;;;;;;;;5031106;28;19971;-71
2023/11/11 14:23:02;;;;;;;;;;;;;;;;;;5064073;28;20954;-72
2023/11/11 14:25:27;;;;;;;;;;;;;;;;;;5036516;28;19917;-72
2023/11/11 14:27:54;;;;;;;;;;;;;;;;;;5043360;28;20478;-72
2023/11/11 14:30:19;;;;;;;;;;;;;;;;;;5032856;28;19915;-71
2023/11/11 14:32:44;;;;;;;;;;;;;;;;;;5026470;28;19909;-71
2023/11/11 14:35:13;;;;;;;;;;;;;;;;;;5035370;28;20004;-72
2023/11/11 14:37:38;;;;;;;;;;;;;;;;;;5030355;28;19909;-72
2023/11/11 14:40:04;;;;;;;;;;;;;;;;;;5029170;28;19913;-71
2023/11/11 14:42:31;;;;;;;;;;;;;;;;;;5032742;28;20024;-71
2023/11/11 14:44:56;;;;;;;;;;;;;;;;;;5033327;28;20019;-71
2023/11/11 14:47:23;;;;;;;;;;;;;;;;;;5034044;28;19913;-72
2023/11/11 14:49:48;;;;;;;;;;;;;;;;;;5029857;28;19920;-71
2023/11/11 14:52:14;;;;;;;;;;;;;;;;;;5030610;28;19908;-73
2023/11/11 14:54:39;;;;;;;;;;;;;;;;;;5025204;28;19920;-75
2023/11/11 14:57:04;;;;;;;;;;;;;;;;;;5062536;28;20593;-71
2023/11/11 14:59:30;;;;;;;;;;;;;;;;;;5034023;28;20211;-70
2023/11/11 15:01:56;;;;;;;;;;;;;;;;;;5029451;28;19924;-72
2023/11/11 15:04:21;;;;;;;;;;;;;;;;;;5034653;28;20003;-73
2023/11/11 15:06:46;;;;;;;;;;;;;;;;;;5030541;28;19921;-71